Prachin Buri, Thailand
Current Conditions -  °F | °C
As of 2:00 AM on Sunday 26 Oct 2014 (Local Time) from VTBS Reporting Station
Broken Clouds Broken Clouds  
Wind Chill: 81°   Ceiling: 12000
Heat Index: 86°   Visibility: 6mi
Dew Point: 75°   Wind: 3mph
Humidity: 84%   Direction: 90°E
Pressure: 29.85"   Gusts: NA
Location:  14.05°N, 101.38°E
Report Text: VTBS 251900Z 09003KT 9000 FEW020 SCT035 BKN120 27/24 Q1011 NOSIG
Loading
Personal Weather Stations






























Interactive Weather Map
Tropical Storm Tracking
New forecast layout! Learn more

10-Day Weather Forecast

Advertisements
Track Severe Weather on mobile